createdAt,value
2019-01-22T00:00:44.999Z,25.22
2019-01-22T00:01:54.755Z,25.22
2019-01-22T00:03:04.526Z,25.12
2019-01-22T00:04:13.561Z,25.22
2019-01-22T00:05:23.190Z,25.22
2019-01-22T00:06:32.508Z,25.32
2019-01-22T00:07:42.083Z,25.32
2019-01-22T00:08:51.657Z,25.22
2019-01-22T00:10:01.196Z,25.32
2019-01-22T00:11:12.058Z,25.22
2019-01-22T00:12:21.427Z,25.12
2019-01-22T00:13:30.962Z,25.31
2019-01-22T00:14:40.345Z,25.11
2019-01-22T00:15:49.745Z,25.11
2019-01-22T00:16:59.323Z,25.02
2019-01-22T00:18:08.908Z,25.02
2019-01-22T00:19:18.575Z,25.11
2019-01-22T00:20:27.842Z,25.02
2019-01-22T00:21:37.426Z,25.31
2019-01-22T00:22:47.026Z,24.92
2019-01-22T00:23:56.569Z,25.21
2019-01-22T00:25:05.652Z,24.82
2019-01-22T00:26:15.447Z,24.92
2019-01-22T00:27:24.717Z,25.02
2019-01-22T00:28:33.503Z,24.92
2019-01-22T00:29:42.840Z,25.02
2019-01-22T00:30:51.935Z,24.92
2019-01-22T00:32:01.507Z,25.02
2019-01-22T00:33:10.818Z,25.11
2019-01-22T00:34:20.094Z,25.02
2019-01-22T00:35:29.448Z,24.92
2019-01-22T00:36:38.344Z,24.82
2019-01-22T00:37:47.446Z,24.92
2019-01-22T00:38:56.811Z,24.92
2019-01-22T00:40:06.188Z,25.02
2019-01-22T00:41:15.837Z,24.92
2019-01-22T00:42:24.970Z,24.82
2019-01-22T00:43:34.307Z,24.92
2019-01-22T00:44:44.515Z,24.73
2019-01-22T00:45:54.864Z,24.63
2019-01-22T00:47:05.391Z,24.92
2019-01-22T00:48:15.115Z,24.82
2019-01-22T00:49:25.035Z,24.82
2019-01-22T00:50:34.600Z,24.73
2019-01-22T00:51:43.983Z,24.73
2019-01-22T00:52:53.050Z,24.54
2019-01-22T00:54:02.906Z,24.54
2019-01-22T00:55:12.003Z,24.54
2019-01-22T00:56:21.032Z,24.52
2019-01-22T00:57:30.860Z,24.52
2019-01-22T00:58:39.910Z,24.73
2019-01-22T00:59:48.851Z,24.62
2019-01-22T01:00:58.675Z,24.54
2019-01-22T01:02:07.496Z,24.52
2019-01-22T01:03:16.533Z,24.33
2019-01-22T01:04:25.318Z,24.52
2019-01-22T01:05:34.862Z,24.43
2019-01-22T01:06:43.928Z,24.43
2019-01-22T01:07:53.770Z,24.33
2019-01-22T01:09:03.993Z,24.33
2019-01-22T01:10:13.029Z,24.43
2019-01-22T01:11:21.826Z,24.52
2019-01-22T01:12:31.393Z,24.71
2019-01-22T01:13:40.649Z,24.71
2019-01-22T01:14:50.454Z,24.62
2019-01-22T01:15:59.678Z,24.62
2019-01-22T01:17:08.982Z,24.52
2019-01-22T01:18:18.764Z,24.62
2019-01-22T01:19:27.819Z,24.52
2019-01-22T01:20:37.389Z,24.71
2019-01-22T01:21:46.913Z,24.52
2019-01-22T01:22:56.191Z,24.52
2019-01-22T01:24:05.272Z,24.52
2019-01-22T01:25:14.117Z,24.62
2019-01-22T01:26:23.960Z,24.43
2019-01-22T01:27:33.849Z,24.43
2019-01-22T01:28:43.228Z,24.43
2019-01-22T01:29:52.582Z,24.71
2019-01-22T01:31:01.987Z,24.62
2019-01-22T01:32:11.351Z,24.52
2019-01-22T01:33:20.354Z,24.52
2019-01-22T01:34:29.370Z,24.14
2019-01-22T01:35:38.872Z,24.43
2019-01-22T01:36:47.715Z,24.62
2019-01-22T01:37:57.044Z,24.23
2019-01-22T01:39:06.085Z,24.33
2019-01-22T01:40:15.439Z,24.33
2019-01-22T01:41:24.773Z,24.33
2019-01-22T01:42:34.414Z,24.33
2019-01-22T01:43:43.257Z,24.33
2019-01-22T01:44:52.069Z,24.43
2019-01-22T01:46:00.907Z,24.41
2019-01-22T01:47:10.673Z,24.33
2019-01-22T01:48:19.966Z,24.41
2019-01-22T01:49:29.070Z,24.41
2019-01-22T01:50:38.077Z,24.43
2019-01-22T01:51:47.919Z,24.33
2019-01-22T01:52:57.266Z,24.51
2019-01-22T01:54:06.798Z,24.04
2019-01-22T01:55:15.567Z,24.13
2019-01-22T01:56:24.890Z,24.04
2019-01-22T01:57:34.037Z,24.03
2019-01-22T01:58:43.850Z,24.23
2019-01-22T01:59:53.176Z,24.23
2019-01-22T02:01:02.827Z,24.32
2019-01-22T02:02:11.910Z,24.14
2019-01-22T02:03:21.372Z,24.03
2019-01-22T02:04:30.735Z,24.03
2019-01-22T02:05:40.952Z,24.13
2019-01-22T02:06:50.639Z,24.13
2019-01-22T02:08:01.086Z,24.13
2019-01-22T02:09:11.797Z,24.03
2019-01-22T02:10:21.836Z,24.13
2019-01-22T02:11:31.679Z,23.93
2019-01-22T02:12:41.079Z,24.03
2019-01-22T02:13:50.344Z,24.03
2019-01-22T02:14:59.643Z,24.03
2019-01-22T02:16:08.943Z,24.03
2019-01-22T02:17:18.199Z,24.03
2019-01-22T02:18:27.240Z,24.03
2019-01-22T02:19:36.503Z,24.13
2019-01-22T02:20:45.811Z,24.13
2019-01-22T02:21:55.087Z,23.84
2019-01-22T02:23:04.668Z,23.74
2019-01-22T02:24:13.718Z,24.03
2019-01-22T02:25:23.495Z,24.03
2019-01-22T02:26:33.310Z,24.03
2019-01-22T02:27:42.598Z,23.84
2019-01-22T02:28:51.434Z,24.03
2019-01-22T02:30:01.203Z,24.13
2019-01-22T02:31:11.048Z,24.13
2019-01-22T02:32:20.571Z,24.03
2019-01-22T02:33:30.706Z,24.32
2019-01-22T02:34:39.739Z,24.13
2019-01-22T02:35:49.302Z,24.22
2019-01-22T02:36:59.123Z,24.03
2019-01-22T02:38:08.198Z,23.93
2019-01-22T02:39:17.832Z,23.93
2019-01-22T02:40:27.670Z,23.93
2019-01-22T02:41:36.974Z,23.93
2019-01-22T02:42:47.038Z,24.13
2019-01-22T02:43:56.589Z,24.13
2019-01-22T02:45:06.125Z,23.65
2019-01-22T02:46:15.957Z,23.55
2019-01-22T02:47:25.061Z,23.46
2019-01-22T02:48:34.620Z,23.93
2019-01-22T02:49:43.634Z,23.65
2019-01-22T02:50:53.441Z,23.46
2019-01-22T02:52:02.791Z,23.74
2019-01-22T02:53:12.323Z,23.55
2019-01-22T02:54:21.824Z,23.55
2019-01-22T02:55:31.643Z,23.55
2019-01-22T02:56:41.456Z,23.55
2019-01-22T02:57:50.661Z,23.55
2019-01-22T02:59:00.200Z,23.55
2019-01-22T03:00:09.972Z,23.46
2019-01-22T03:01:19.633Z,23.54
2019-01-22T03:02:29.756Z,23.55
2019-01-22T03:03:39.707Z,23.46
2019-01-22T03:04:49.260Z,23.54
2019-01-22T03:05:59.688Z,23.44
2019-01-22T03:07:10.051Z,23.55
2019-01-22T03:08:19.768Z,23.63
2019-01-22T03:09:29.488Z,23.63
2019-01-22T03:10:39.283Z,23.55
2019-01-22T03:11:48.818Z,23.65
2019-01-22T03:12:57.609Z,23.63
2019-01-22T03:14:06.965Z,23.65
2019-01-22T03:15:16.526Z,23.63
2019-01-22T03:16:26.157Z,23.73
2019-01-22T03:17:35.426Z,23.73
2019-01-22T03:18:44.736Z,23.63
2019-01-22T03:19:54.008Z,23.73
2019-01-22T03:21:03.271Z,23.83
2019-01-22T03:22:12.885Z,23.74
2019-01-22T03:23:22.173Z,23.35
2019-01-22T03:24:31.465Z,23.25
2019-01-22T03:25:40.762Z,23.35
2019-01-22T03:26:50.546Z,23.25
2019-01-22T03:27:59.810Z,23.63
2019-01-22T03:29:09.077Z,23.25
2019-01-22T03:30:18.632Z,23.44
2019-01-22T03:31:28.229Z,23.44
2019-01-22T03:32:38.259Z,23.44
2019-01-22T03:33:47.816Z,23.54
2019-01-22T03:34:56.583Z,23.54
2019-01-22T03:36:05.854Z,23.54
2019-01-22T03:37:15.386Z,23.54
2019-01-22T03:38:24.372Z,23.54
2019-01-22T03:39:35.172Z,23.54
2019-01-22T03:40:45.150Z,23.54
2019-01-22T03:41:54.636Z,23.54
2019-01-22T03:43:04.164Z,23.44
2019-01-22T03:44:13.696Z,23.44
2019-01-22T03:45:22.940Z,23.44
2019-01-22T03:46:32.729Z,23.44
2019-01-22T03:47:41.483Z,23.44
2019-01-22T03:48:50.522Z,23.44
2019-01-22T03:50:00.313Z,23.54
2019-01-22T03:51:09.642Z,23.44
2019-01-22T03:52:19.427Z,23.35
2019-01-22T03:53:28.452Z,23.44
2019-01-22T03:54:37.967Z,23.35
2019-01-22T03:55:47.584Z,23.44
2019-01-22T03:56:57.980Z,23.35
2019-01-22T03:58:07.982Z,23.44
2019-01-22T03:59:18.265Z,23.35
2019-01-22T04:00:28.445Z,23.44
2019-01-22T04:01:38.349Z,23.44
2019-01-22T04:02:48.069Z,23.54
2019-01-22T04:03:57.439Z,23.35
2019-01-22T04:05:06.737Z,23.54
2019-01-22T04:06:16.298Z,23.54
2019-01-22T04:07:25.524Z,23.54
2019-01-22T04:08:35.260Z,23.54
2019-01-22T04:09:44.509Z,23.44
2019-01-22T04:10:54.316Z,23.44
2019-01-22T04:12:03.853Z,23.25
2019-01-22T04:13:13.609Z,23.35
2019-01-22T04:14:22.679Z,23.25
2019-01-22T04:15:32.198Z,23.35
2019-01-22T04:16:42.073Z,23.44
2019-01-22T04:17:51.670Z,23.25
2019-01-22T04:19:00.777Z,23.15
2019-01-22T04:20:11.795Z,23.35
2019-01-22T04:21:21.065Z,23.25
2019-01-22T04:22:30.393Z,23.35
2019-01-22T04:23:39.422Z,23.35
2019-01-22T04:24:48.448Z,23.25
2019-01-22T04:25:58.483Z,23.25
2019-01-22T04:27:08.015Z,23.33
2019-01-22T04:28:17.535Z,23.73
2019-01-22T04:29:27.076Z,23.52
2019-01-22T04:30:36.896Z,23.15
2019-01-22T04:31:46.385Z,23.15
2019-01-22T04:32:56.204Z,23.24
2019-01-22T04:34:05.500Z,23.25
2019-01-22T04:35:15.095Z,23.25
2019-01-22T04:36:24.652Z,23.15
2019-01-22T04:37:34.195Z,23.24
2019-01-22T04:38:43.503Z,23.44
2019-01-22T04:39:53.050Z,23.52
2019-01-22T04:41:02.922Z,23.54
2019-01-22T04:42:12.468Z,23.15
2019-01-22T04:43:21.980Z,23.52
2019-01-22T04:44:31.506Z,23.33
2019-01-22T04:45:40.798Z,23.43
2019-01-22T04:46:50.809Z,23.24
2019-01-22T04:48:00.751Z,23.33
2019-01-22T04:49:11.573Z,23.43
2019-01-22T04:50:21.794Z,23.52
2019-01-22T04:51:31.123Z,23.33
2019-01-22T04:52:40.932Z,23.44
2019-01-22T04:53:51.012Z,23.33
2019-01-22T04:55:00.344Z,23.24
2019-01-22T04:56:10.403Z,23.52
2019-01-22T04:57:19.973Z,23.33
2019-01-22T04:58:29.563Z,23.54
2019-01-22T04:59:38.874Z,23.43
2019-01-22T05:00:48.407Z,23.14
2019-01-22T05:01:57.680Z,23.43
2019-01-22T05:03:07.439Z,23.43
2019-01-22T05:04:17.239Z,23.24
2019-01-22T05:05:26.994Z,23.14
2019-01-22T05:06:36.306Z,23.33
2019-01-22T05:07:45.353Z,23.14
2019-01-22T05:08:55.158Z,23.24
2019-01-22T05:10:04.178Z,23.14
2019-01-22T05:11:13.263Z,23.14
2019-01-22T05:12:22.563Z,23.14
2019-01-22T05:13:31.875Z,23.24
2019-01-22T05:14:41.623Z,23.14
2019-01-22T05:15:51.119Z,23.14
2019-01-22T05:17:00.634Z,23.14
2019-01-22T05:18:09.925Z,23.14
2019-01-22T05:19:19.226Z,23.24
2019-01-22T05:20:28.238Z,23.14
2019-01-22T05:21:37.487Z,23.14
2019-01-22T05:22:46.497Z,23.33
2019-01-22T05:23:55.254Z,23.14
2019-01-22T05:25:04.769Z,23.14
2019-01-22T05:26:14.047Z,23.14
2019-01-22T05:27:23.580Z,22.95
2019-01-22T05:28:33.114Z,22.95
2019-01-22T05:29:42.573Z,22.95
2019-01-22T05:30:51.861Z,23.14
2019-01-22T05:32:00.880Z,23.14
2019-01-22T05:33:09.898Z,23.14
2019-01-22T05:34:19.944Z,23.05
2019-01-22T05:35:29.982Z,23.14
2019-01-22T05:36:39.744Z,23.14
2019-01-22T05:37:49.604Z,23.14
2019-01-22T05:38:59.547Z,23.05
2019-01-22T05:40:09.658Z,23.14
2019-01-22T05:41:19.552Z,23.14
2019-01-22T05:42:29.012Z,23.14
2019-01-22T05:43:38.162Z,23.14
2019-01-22T05:44:47.898Z,23.14
2019-01-22T05:45:57.302Z,23.05
2019-01-22T05:47:07.336Z,23.05
2019-01-22T05:48:16.875Z,22.95
2019-01-22T05:49:25.917Z,22.95
2019-01-22T05:50:35.516Z,22.95
2019-01-22T05:51:45.283Z,23.05
2019-01-22T05:52:54.547Z,23.05
2019-01-22T05:54:03.566Z,23.05
2019-01-22T05:55:12.846Z,23.05
2019-01-22T05:56:22.137Z,23.05
2019-01-22T05:57:31.667Z,22.85
2019-01-22T05:58:41.208Z,22.95
2019-01-22T05:59:50.714Z,22.85
2019-01-22T06:00:59.686Z,22.95
2019-01-22T06:02:08.921Z,22.85
2019-01-22T06:03:18.439Z,22.76
2019-01-22T06:04:27.919Z,22.85
2019-01-22T06:05:37.376Z,22.95
2019-01-22T06:06:46.868Z,22.56
2019-01-22T06:07:55.816Z,22.76
2019-01-22T06:09:05.571Z,22.76
2019-01-22T06:10:15.100Z,22.76
2019-01-22T06:11:25.847Z,22.66
2019-01-22T06:12:35.199Z,22.56
2019-01-22T06:13:44.998Z,22.56
2019-01-22T06:14:54.450Z,22.56
2019-01-22T06:16:04.195Z,22.56
2019-01-22T06:17:13.791Z,22.66
2019-01-22T06:18:23.300Z,22.66
2019-01-22T06:19:32.530Z,22.66
2019-01-22T06:20:41.995Z,22.76
2019-01-22T06:21:50.997Z,22.76
2019-01-22T06:23:00.734Z,22.76
2019-01-22T06:24:10.513Z,22.76
2019-01-22T06:25:19.508Z,22.66
2019-01-22T06:26:28.790Z,22.76
2019-01-22T06:27:38.024Z,22.85
2019-01-22T06:28:47.050Z,22.76
2019-01-22T06:29:56.594Z,22.66
2019-01-22T06:31:05.851Z,22.56
2019-01-22T06:32:15.554Z,22.76
2019-01-22T06:33:25.024Z,22.76
2019-01-22T06:34:33.988Z,22.76
2019-01-22T06:35:43.219Z,22.76
2019-01-22T06:36:52.940Z,22.66
2019-01-22T06:38:02.204Z,22.66
2019-01-22T06:39:12.550Z,22.66
2019-01-22T06:40:22.313Z,22.76
2019-01-22T06:41:31.783Z,22.66
2019-01-22T06:42:40.489Z,22.66
2019-01-22T06:43:50.206Z,22.76
2019-01-22T06:44:59.453Z,22.66
2019-01-22T06:46:08.451Z,22.38
2019-01-22T06:47:18.215Z,22.38
2019-01-22T06:48:27.531Z,22.66
2019-01-22T06:49:36.755Z,22.38
2019-01-22T06:50:45.780Z,22.47
2019-01-22T06:51:54.497Z,22.47
2019-01-22T06:53:03.705Z,22.38
2019-01-22T06:54:13.444Z,22.47
2019-01-22T06:55:22.477Z,22.28
2019-01-22T06:56:31.479Z,22.38
2019-01-22T06:57:41.240Z,22.56
2019-01-22T06:58:50.501Z,22.38
2019-01-22T06:59:59.472Z,22.56
2019-01-22T07:01:08.447Z,22.47
2019-01-22T07:02:17.646Z,22.38
2019-01-22T07:03:26.870Z,22.38
2019-01-22T07:04:36.066Z,22.28
2019-01-22T07:05:45.543Z,22.47
2019-01-22T07:06:54.557Z,22.38
2019-01-22T07:08:04.273Z,22.28
2019-01-22T07:09:13.751Z,21.99
2019-01-22T07:10:23.522Z,22.08
2019-01-22T07:11:33.251Z,22.09
2019-01-22T07:12:42.245Z,21.81
2019-01-22T07:13:51.733Z,21.81
2019-01-22T07:15:00.789Z,21.81
2019-01-22T07:16:11.476Z,21.23
2019-01-22T07:17:22.057Z,21.44
2019-01-22T07:18:31.069Z,21.53
2019-01-22T07:19:40.157Z,21.15
2019-01-22T07:20:49.875Z,21.44
2019-01-22T07:21:59.119Z,21.05
2019-01-22T07:23:08.115Z,21.24
2019-01-22T07:24:17.593Z,21.24
2019-01-22T07:25:26.653Z,21.15
2019-01-22T07:26:35.902Z,20.87
2019-01-22T07:27:45.227Z,20.87
2019-01-22T07:28:54.198Z,20.67
2019-01-22T07:30:03.452Z,20.78
2019-01-22T07:31:12.952Z,20.5
2019-01-22T07:32:22.730Z,20.59
2019-01-22T07:33:31.783Z,20.5
2019-01-22T07:34:40.805Z,20.59
2019-01-22T07:35:50.558Z,20.59
2019-01-22T07:37:00.067Z,20.68
2019-01-22T07:38:09.336Z,20.68
2019-01-22T07:39:18.853Z,20.4
2019-01-22T07:40:28.377Z,20.4
2019-01-22T07:41:37.709Z,20.5
2019-01-22T07:42:46.962Z,20.5
2019-01-22T07:43:56.217Z,20.21
2019-01-22T07:45:05.480Z,20.21
2019-01-22T07:46:14.503Z,20.6
2019-01-22T07:47:24.034Z,20.7
2019-01-22T07:48:33.785Z,20.6
2019-01-22T07:49:42.784Z,20.6
2019-01-22T07:50:52.130Z,20.6
2019-01-22T07:52:01.913Z,20.5
2019-01-22T07:53:11.754Z,20.6
2019-01-22T07:54:21.310Z,20.5
2019-01-22T07:55:30.584Z,20.6
2019-01-22T07:56:39.859Z,20.4
2019-01-22T07:57:49.136Z,20.5
2019-01-22T07:58:57.959Z,20.6
2019-01-22T08:00:07.505Z,20.98
2019-01-22T08:01:17.519Z,20.78
2019-01-22T08:02:27.020Z,20.79
2019-01-22T08:03:36.550Z,20.79
2019-01-22T08:04:46.085Z,20.79
2019-01-22T08:05:55.587Z,20.79
2019-01-22T08:07:04.877Z,20.89
2019-01-22T08:08:14.125Z,20.79
2019-01-22T08:09:23.108Z,20.98
2019-01-22T08:10:32.619Z,20.4
2019-01-22T08:11:42.136Z,20.6
2019-01-22T08:12:51.665Z,20.79
2019-01-22T08:14:00.896Z,20.7
2019-01-22T08:15:10.193Z,20.5
2019-01-22T08:16:19.699Z,20.5
2019-01-22T08:17:29.026Z,20.61
2019-01-22T08:18:38.773Z,20.6
2019-01-22T08:19:48.085Z,20.61
2019-01-22T08:20:57.647Z,20.61
2019-01-22T08:22:06.753Z,20.6
2019-01-22T08:23:16.180Z,20.7
2019-01-22T08:24:25.515Z,20.61
2019-01-22T08:25:34.499Z,20.61
2019-01-22T08:26:43.774Z,20.61
2019-01-22T08:27:53.354Z,20.61
2019-01-22T08:29:02.413Z,20.51
2019-01-22T08:30:11.198Z,20.51
2019-01-22T08:31:20.532Z,20.7
2019-01-22T08:32:30.149Z,20.61
2019-01-22T08:33:39.775Z,20.61
2019-01-22T08:34:49.576Z,20.61
2019-01-22T08:35:59.105Z,20.8
2019-01-22T08:37:08.337Z,20.8
2019-01-22T08:38:17.893Z,20.8
2019-01-22T08:39:27.048Z,20.89
2019-01-22T08:40:36.562Z,20.79
2019-01-22T08:41:45.891Z,20.89
2019-01-22T08:42:55.415Z,20.98
2019-01-22T08:44:04.906Z,20.89
2019-01-22T08:45:13.676Z,20.98
2019-01-22T08:46:22.690Z,21.27
2019-01-22T08:47:31.763Z,21.18
2019-01-22T08:48:40.517Z,21.18
2019-01-22T08:49:49.523Z,21.18
2019-01-22T08:50:58.557Z,21.18
2019-01-22T08:52:08.106Z,21.27
2019-01-22T08:53:17.408Z,21.37
2019-01-22T08:54:27.140Z,21.27
2019-01-22T08:55:36.950Z,21.37
2019-01-22T08:56:46.012Z,21.18
2019-01-22T08:57:55.923Z,21.56
2019-01-22T08:59:06.809Z,21.66
2019-01-22T09:00:19.442Z,21.75
2019-01-22T09:01:29.121Z,21.56
2019-01-22T09:02:42.691Z,21.66
2019-01-22T09:03:51.715Z,21.47
2019-01-22T09:05:01.555Z,21.47
2019-01-22T09:06:10.336Z,21.36
2019-01-22T09:07:19.955Z,21.26
2019-01-22T09:08:29.530Z,21.65
2019-01-22T09:09:38.820Z,21.84
2019-01-22T09:10:48.143Z,21.85
2019-01-22T09:11:57.709Z,21.84
2019-01-22T09:13:06.724Z,21.84
2019-01-22T09:14:15.742Z,21.65
2019-01-22T09:15:25.066Z,21.84
2019-01-22T09:16:34.854Z,21.75
2019-01-22T09:17:44.142Z,21.84
2019-01-22T09:18:53.422Z,21.75
2019-01-22T09:20:02.547Z,21.94
2019-01-22T09:21:12.150Z,21.94
2019-01-22T09:22:20.981Z,21.65
2019-01-22T09:23:30.254Z,21.56
2019-01-22T09:24:39.320Z,21.26
2019-01-22T09:25:48.390Z,21.45
2019-01-22T09:26:57.920Z,21.37
2019-01-22T09:28:06.939Z,21.47
2019-01-22T09:29:16.156Z,21.56
2019-01-22T09:30:27.517Z,21.66
2019-01-22T09:31:37.054Z,21.56
2019-01-22T09:32:45.865Z,21.47
2019-01-22T09:33:55.161Z,21.27
2019-01-22T09:35:04.674Z,21.27
2019-01-22T09:36:17.365Z,21.37
2019-01-22T09:37:26.903Z,21.37
2019-01-22T09:38:36.551Z,21.37
2019-01-22T09:39:46.100Z,21.27
2019-01-22T09:40:56.466Z,21.19
2019-01-22T09:42:05.975Z,21.19
2019-01-22T09:43:15.720Z,21.09
2019-01-22T09:44:24.965Z,21.19
2019-01-22T09:45:34.943Z,21.19
2019-01-22T09:46:44.645Z,21.18
2019-01-22T09:47:53.389Z,21.19
2019-01-22T09:49:02.440Z,21.28
2019-01-22T09:50:12.263Z,21.28
2019-01-22T09:51:21.335Z,21.48
2019-01-22T09:52:30.653Z,21.38
2019-01-22T09:53:39.942Z,21.48
2019-01-22T09:54:49.713Z,21.58
2019-01-22T09:56:03.221Z,21.28
2019-01-22T09:57:12.979Z,21.28
2019-01-22T09:58:21.998Z,21.48
2019-01-22T09:59:31.015Z,21.58
2019-01-22T10:00:40.616Z,21.58
2019-01-22T10:01:49.936Z,21.48
2019-01-22T10:02:59.653Z,21.58
2019-01-22T10:04:09.407Z,21.58
2019-01-22T10:05:18.920Z,21.56
2019-01-22T10:06:28.381Z,21.47
2019-01-22T10:07:37.614Z,21.56
2019-01-22T10:08:46.718Z,21.37
2019-01-22T10:09:55.742Z,21.37
2019-01-22T10:11:05.229Z,21.27
2019-01-22T10:12:14.744Z,21.66
2019-01-22T10:13:23.516Z,21.85
2019-01-22T10:14:32.789Z,21.85
2019-01-22T10:15:42.160Z,21.75
2019-01-22T10:16:51.407Z,22.05
2019-01-22T10:18:00.736Z,21.75
2019-01-22T10:19:10.047Z,21.85
2019-01-22T10:20:19.049Z,21.95
2019-01-22T10:21:28.160Z,22.05
2019-01-22T10:22:37.148Z,21.95
2019-01-22T10:23:49.398Z,22.14
2019-01-22T10:24:58.934Z,21.85
2019-01-22T10:26:08.222Z,21.95
2019-01-22T10:27:17.533Z,22.05
2019-01-22T10:28:27.076Z,22.05
2019-01-22T10:29:36.597Z,22.14
2019-01-22T10:30:46.167Z,22.14
2019-01-22T10:31:55.274Z,22.14
2019-01-22T10:33:04.848Z,22.14
2019-01-22T10:34:14.389Z,22.14
2019-01-22T10:35:23.471Z,22.14
2019-01-22T10:36:33.050Z,21.85
2019-01-22T10:37:42.052Z,22.14
2019-01-22T10:38:51.606Z,22.14
2019-01-22T10:40:01.330Z,22.24
2019-01-22T10:41:11.086Z,21.85
2019-01-22T10:42:20.604Z,22.14
2019-01-22T10:43:29.615Z,22.24
2019-01-22T10:44:38.935Z,22.24
2019-01-22T10:45:47.750Z,21.95
2019-01-22T10:46:56.767Z,22.05
2019-01-22T10:48:05.794Z,21.95
2019-01-22T10:49:15.087Z,22.05
2019-01-22T10:50:24.672Z,21.85
2019-01-22T10:51:38.597Z,21.95
2019-01-22T10:52:47.653Z,21.75
2019-01-22T10:53:57.189Z,21.75
2019-01-22T10:55:06.694Z,21.85
2019-01-22T10:56:16.295Z,21.86
2019-01-22T10:57:25.552Z,21.67
2019-01-22T10:58:34.899Z,21.48
2019-01-22T10:59:44.274Z,21.28
2019-01-22T11:00:53.307Z,21.28
2019-01-22T11:02:02.867Z,21.19
2019-01-22T11:03:11.995Z,21.19
2019-01-22T11:04:20.980Z,21.28
2019-01-22T11:05:30.525Z,21.19
2019-01-22T11:06:40.081Z,21.48
2019-01-22T11:07:49.070Z,21.28
2019-01-22T11:08:58.161Z,21.38
2019-01-22T11:10:07.488Z,21.67
2019-01-22T11:11:16.771Z,21.48
2019-01-22T11:12:25.521Z,21.48
2019-01-22T11:13:34.559Z,21.86
2019-01-22T11:14:44.065Z,22.05
2019-01-22T11:15:53.862Z,21.77
2019-01-22T11:17:03.133Z,21.86
2019-01-22T11:18:12.916Z,21.67
2019-01-22T11:19:22.456Z,21.86
2019-01-22T11:20:35.286Z,21.77
2019-01-22T11:21:44.671Z,21.86
2019-01-22T11:22:53.972Z,21.96
2019-01-22T11:24:03.326Z,21.96
2019-01-22T11:25:12.650Z,21.96
2019-01-22T11:26:21.432Z,22.05
2019-01-22T11:27:30.977Z,21.86
2019-01-22T11:28:40.258Z,22.15
2019-01-22T11:29:49.591Z,22.15
2019-01-22T11:30:58.622Z,22.14
2019-01-22T11:32:07.900Z,22.24
2019-01-22T11:33:16.941Z,22.14
2019-01-22T11:34:26.463Z,22.14
2019-01-22T11:35:35.958Z,22.05
2019-01-22T11:36:45.534Z,22.05
2019-01-22T11:37:55.152Z,22.14
2019-01-22T11:39:04.420Z,22.14
2019-01-22T11:40:13.737Z,22.14
2019-01-22T11:41:23.038Z,22.14
2019-01-22T11:42:31.841Z,22.33
2019-01-22T11:43:40.931Z,22.05
2019-01-22T11:44:49.992Z,22.33
2019-01-22T11:45:59.351Z,22.24
2019-01-22T11:47:08.410Z,22.24
2019-01-22T11:48:17.704Z,22.43
2019-01-22T11:49:27.306Z,22.43
2019-01-22T11:50:36.829Z,22.14
2019-01-22T11:51:46.181Z,22.24
2019-01-22T11:52:54.923Z,22.43
2019-01-22T11:54:04.506Z,22.43
2019-01-22T11:55:14.317Z,22.52
2019-01-22T11:56:23.370Z,22.52
2019-01-22T11:57:32.679Z,22.52
2019-01-22T11:58:41.759Z,22.33
2019-01-22T11:59:51.329Z,22.52
2019-01-22T12:01:00.372Z,22.52
2019-01-22T12:02:09.979Z,22.43
2019-01-22T12:03:19.465Z,22.33
2019-01-22T12:04:28.758Z,22.43
2019-01-22T12:05:38.120Z,22.24
2019-01-22T12:06:46.916Z,22.24
2019-01-22T12:07:56.471Z,22.33
2019-01-22T12:09:05.482Z,22.14
2019-01-22T12:10:15.286Z,22.52
2019-01-22T12:11:24.887Z,22.33
2019-01-22T12:12:34.906Z,22.14
2019-01-22T12:13:44.689Z,22.14
2019-01-22T12:15:01.599Z,22.24
2019-01-22T12:16:11.196Z,22.15
2019-01-22T12:17:20.727Z,22.53
2019-01-22T12:18:30.068Z,22.15
2019-01-22T12:19:39.919Z,22.15
2019-01-22T12:20:49.319Z,22.05
2019-01-22T12:21:58.384Z,22.15
2019-01-22T12:23:07.630Z,22.05
2019-01-22T12:24:16.683Z,22.15
2019-01-22T12:25:26.278Z,22.25
2019-01-22T12:26:35.850Z,22.25
2019-01-22T12:27:44.620Z,21.86
2019-01-22T12:28:53.682Z,22.05
2019-01-22T12:30:03.822Z,22.15
2019-01-22T12:31:13.654Z,22.15
2019-01-22T12:32:22.927Z,22.15
2019-01-22T12:33:32.451Z,22.15
2019-01-22T12:34:41.457Z,22.15
2019-01-22T12:35:51.063Z,22.15
2019-01-22T12:37:00.597Z,22.53
2019-01-22T12:38:09.739Z,22.53
2019-01-22T12:39:19.065Z,22.05
2019-01-22T12:40:28.396Z,22.15
2019-01-22T12:41:38.179Z,22.25
2019-01-22T12:42:47.520Z,22.25
2019-01-22T12:43:57.053Z,22.25
2019-01-22T12:45:06.139Z,22.15
2019-01-22T12:46:15.432Z,22.25
2019-01-22T12:47:24.781Z,22.34
2019-01-22T12:48:34.182Z,22.25
2019-01-22T12:49:43.284Z,22.15
2019-01-22T12:50:52.890Z,22.34
2019-01-22T12:52:02.287Z,22.15
2019-01-22T12:53:11.113Z,22.34
2019-01-22T12:54:19.918Z,22.44
2019-01-22T12:55:29.248Z,22.34
2019-01-22T12:56:39.278Z,22.34
2019-01-22T12:57:48.826Z,22.34
2019-01-22T12:58:57.598Z,22.24
2019-01-22T13:00:06.920Z,22.72
2019-01-22T13:01:16.760Z,22.52
2019-01-22T13:02:26.289Z,22.43
2019-01-22T13:03:35.616Z,22.43
2019-01-22T13:04:45.143Z,22.33
2019-01-22T13:05:54.958Z,22.43
2019-01-22T13:07:04.309Z,22.52
2019-01-22T13:08:14.147Z,22.52
2019-01-22T13:09:23.697Z,22.43
2019-01-22T13:10:33.250Z,22.52
2019-01-22T13:11:42.869Z,22.33
2019-01-22T13:12:51.652Z,22.43
2019-01-22T13:14:00.491Z,22.62
2019-01-22T13:15:10.124Z,22.72
2019-01-22T13:16:19.520Z,22.81
2019-01-22T13:17:28.646Z,22.72
2019-01-22T13:18:39.643Z,22.33
2019-01-22T13:19:48.756Z,22.81
2019-01-22T13:20:58.243Z,22.43
2019-01-22T13:22:07.495Z,22.43
2019-01-22T13:23:18.335Z,22.43
2019-01-22T13:24:28.038Z,22.33
2019-01-22T13:25:38.123Z,22.52
2019-01-22T13:26:46.949Z,22.52
2019-01-22T13:27:56.042Z,22.43
2019-01-22T13:29:05.442Z,22.43
2019-01-22T13:30:15.441Z,22.63
2019-01-22T13:31:25.566Z,22.44
2019-01-22T13:32:34.884Z,22.44
2019-01-22T13:33:44.453Z,22.25
2019-01-22T13:34:54.048Z,22.34
2019-01-22T13:36:03.210Z,22.34
2019-01-22T13:37:12.756Z,22.34
2019-01-22T13:38:22.332Z,22.25
2019-01-22T13:39:32.173Z,22.25
2019-01-22T13:40:41.538Z,22.25
2019-01-22T13:41:51.167Z,22.25
2019-01-22T13:43:00.763Z,22.15
2019-01-22T13:44:10.152Z,22.15
2019-01-22T13:45:19.762Z,22.15
2019-01-22T13:46:29.579Z,22.15
2019-01-22T13:47:39.132Z,22.15
2019-01-22T13:48:48.417Z,22.05
2019-01-22T13:49:57.977Z,21.96
2019-01-22T13:51:07.322Z,22.05
2019-01-22T13:52:16.349Z,22.15
2019-01-22T13:53:25.516Z,22.25
2019-01-22T13:54:35.189Z,22.34
2019-01-22T13:55:44.509Z,22.34
2019-01-22T13:56:53.565Z,22.34
2019-01-22T13:58:03.149Z,22.34
2019-01-22T13:59:12.718Z,22.25
2019-01-22T14:00:21.850Z,22.44
2019-01-22T14:01:31.670Z,22.25
2019-01-22T14:02:40.970Z,22.44
2019-01-22T14:03:50.099Z,22.34
2019-01-22T14:04:59.988Z,22.44
2019-01-22T14:06:09.287Z,22.53
2019-01-22T14:07:18.878Z,22.63
2019-01-22T14:08:28.421Z,22.34
2019-01-22T14:09:37.702Z,22.53
2019-01-22T14:10:46.757Z,22.53
2019-01-22T14:11:56.076Z,22.44
2019-01-22T14:13:05.722Z,22.44
2019-01-22T14:14:14.495Z,22.34
2019-01-22T14:15:24.066Z,22.53
2019-01-22T14:16:33.366Z,22.63
2019-01-22T14:17:42.465Z,22.53
2019-01-22T14:18:51.798Z,22.53
2019-01-22T14:20:01.091Z,22.44
2019-01-22T14:21:10.709Z,22.73
2019-01-22T14:22:23.647Z,22.73
2019-01-22T14:23:33.337Z,22.72
2019-01-22T14:24:42.367Z,22.63
2019-01-22T14:25:51.673Z,22.81
2019-01-22T14:27:01.275Z,22.62
2019-01-22T14:28:10.829Z,22.72
2019-01-22T14:29:19.658Z,22.72
2019-01-22T14:30:30.279Z,22.62
2019-01-22T14:31:39.591Z,22.72
2019-01-22T14:32:49.130Z,22.72
2019-01-22T14:33:58.692Z,22.62
2019-01-22T14:35:08.022Z,22.52
2019-01-22T14:36:16.831Z,22.62
2019-01-22T14:37:26.424Z,22.62
2019-01-22T14:38:35.754Z,22.81
2019-01-22T14:39:45.286Z,22.81
2019-01-22T14:40:54.917Z,23.3
2019-01-22T14:42:04.738Z,23
2019-01-22T14:43:14.284Z,22.91
2019-01-22T14:44:24.088Z,23.39
2019-01-22T14:45:33.645Z,23
2019-01-22T14:46:42.933Z,22.62
2019-01-22T14:47:52.464Z,22.91
2019-01-22T14:49:01.263Z,22.62
2019-01-22T14:50:10.589Z,22.72
2019-01-22T14:51:19.693Z,22.72
2019-01-22T14:52:28.947Z,22.62
2019-01-22T14:53:38.249Z,22.62
2019-01-22T14:54:47.524Z,22.72
2019-01-22T14:55:56.827Z,22.83